Aeroporto :
LOGIN :

Iscrizione | Disclaimer

   EN    FR    IT 

 










Sommario :    VFR   VFR Marginale   IFR   IFR Intensivo   IFR Molto Intensivo
Visibilità : 
Base nubi : 
>= 8 km
>= 3000ft
5 / 8 km
1000 / 3000 ft
1500m / 5 km
500 / 1000 ft
800 / 1500m
200 / 500 ft
< 800m
< 200 ft
Simboli :   Temporali  Nebbia  Neve Forte  Precipitazioni Forti  Vento > 20 kt
SIGMETs :   Varie  Temporali  Ghiacco  Turbolenza  Onda orograficha  Ceneri Vulcaniche







- Altitudine del aeroporto : 505 ft
- Codice IATA : SXB
- Carte del aeroporto


LFST - Strasbourg

ULTIMO METAR :
  • 252330Z AUTO 16004KT 130V190 9999 BKN049 OVC058 11/07 Q1011 TEMPO 4500 RA

METARs OBSOLETI :
  • 252300Z AUTO 19004KT 9999 OVC050 12/07 Q1011 TEMPO RA
  • 252230Z AUTO VRB03KT 9999 OVC049 12/06 Q1011 TEMPO RA
  • 252200Z AUTO 29006KT 9999 OVC049 12/05 Q1011 TEMPO RA
  • 252130Z AUTO 29007KT 9999 BKN042 OVC049 12/05 Q1011 TEMPO RA
  • 252100Z AUTO 28008KT 9999 BKN038 OVC049 12/05 Q1011 NOSIG

TAF TAF LFST
Valido dal 26 a 00 ore il 27 a 00 ore UTC


252300Z 2600/2624 23008KT 9999 SCT030 BKN045
TEMPO 2600/2609 4500 RA
PROB40 2604/2608 BKN009
BECMG 2610/2612 FEW030TCU
PROB30
TEMPO 2613/2618 SHRA FEW035CB BKN050
Nessun NOTAM noto per questo aeroporto.



MetMap, La meteo Aeronautica in un colpo d'occhio ! - Copyright ORBIFLY Dicembre 2007 - Disclaimer

ORBIFLY MET'MAP TEAM :

Programmazione e sviluppo : Alexandra Zaïnal
Concezione e sviluppo : Baudouin d'Aumeries
Co-Programmazione e sviluppo : Marc-Olivier Méhu
Supporto tecnico e logistico : Manuel Goepfert
Aiuto per la traduzione : Arnaldo La Scala

Contatto : metmap@orbifly.com




FONTI E CREDITI :

   NOAA